createdAt,value
2023-05-13T00:00:06.963Z,91.50
2023-05-13T00:02:55.699Z,91.50
2023-05-13T00:05:22.735Z,91.60
2023-05-13T00:07:50.183Z,91.60
2023-05-13T00:10:17.131Z,91.70
2023-05-13T00:12:44.420Z,91.70
2023-05-13T00:15:11.772Z,91.80
2023-05-13T00:17:39.122Z,91.80
2023-05-13T00:20:07.424Z,91.90
2023-05-13T00:22:34.630Z,92.20
2023-05-13T00:25:01.650Z,92.30
2023-05-13T00:27:28.803Z,92.20
2023-05-13T00:29:56.005Z,92.20
2023-05-13T00:32:23.249Z,92.20
2023-05-13T00:34:50.569Z,92.30
2023-05-13T00:37:18.037Z,92.30
2023-05-13T00:39:45.472Z,92.40
2023-05-13T00:42:13.673Z,92.90
2023-05-13T00:44:41.325Z,92.90
2023-05-13T00:47:11.991Z,93.10
2023-05-13T00:49:39.210Z,93.20
2023-05-13T00:52:06.900Z,93.30
2023-05-13T00:54:34.955Z,93.30
2023-05-13T00:57:02.170Z,93.30
2023-05-13T00:59:30.820Z,93.30
2023-05-13T01:02:14.324Z,93.10
2023-05-13T01:05:03.008Z,93.00
2023-05-13T01:07:52.526Z,93.00
2023-05-13T01:10:41.713Z,93.00
2023-05-13T01:13:14.454Z,92.90
2023-05-13T01:16:06.989Z,93.00
2023-05-13T01:18:43.432Z,93.10
2023-05-13T01:21:12.330Z,93.40
2023-05-13T01:23:39.542Z,93.30
2023-05-13T01:26:06.735Z,93.60
2023-05-13T01:28:34.650Z,93.50
2023-05-13T01:31:02.998Z,93.50
2023-05-13T01:33:32.020Z,93.60
2023-05-13T01:35:59.379Z,93.60
2023-05-13T01:38:28.168Z,93.50
2023-05-13T01:40:58.958Z,93.60
2023-05-13T01:43:28.090Z,93.60
2023-05-13T01:45:56.076Z,93.70
2023-05-13T01:48:24.400Z,93.90
2023-05-13T01:50:52.570Z,94.10
2023-05-13T01:53:20.256Z,94.10
2023-05-13T01:55:49.074Z,94.30
2023-05-13T01:58:16.244Z,94.60
2023-05-13T02:00:43.248Z,94.30
2023-05-13T02:03:10.864Z,94.30
2023-05-13T02:05:37.852Z,94.20
2023-05-13T02:08:07.995Z,94.20
2023-05-13T02:10:35.008Z,94.40
2023-05-13T02:13:03.844Z,94.40
2023-05-13T02:15:31.633Z,94.50
2023-05-13T02:17:59.375Z,94.60
2023-05-13T02:20:26.512Z,94.60
2023-05-13T02:22:53.686Z,94.70
2023-05-13T02:25:20.975Z,95.10
2023-05-13T02:27:48.119Z,95.00
2023-05-13T02:30:15.367Z,95.20
2023-05-13T02:32:43.962Z,96.40
2023-05-13T02:35:11.075Z,96.10
2023-05-13T02:37:38.350Z,96.20
2023-05-13T02:40:06.378Z,96.20
2023-05-13T02:42:33.602Z,96.10
2023-05-13T02:45:00.664Z,96.00
2023-05-13T02:47:32.022Z,95.90
2023-05-13T02:50:05.864Z,95.70
2023-05-13T02:52:35.822Z,95.80
2023-05-13T02:55:07.692Z,95.70
2023-05-13T02:57:37.782Z,95.80
2023-05-13T03:00:06.100Z,95.90
2023-05-13T03:02:35.000Z,96.00
2023-05-13T03:05:02.086Z,96.10
2023-05-13T03:07:29.295Z,96.20
2023-05-13T03:09:56.276Z,96.30
2023-05-13T03:12:23.715Z,96.50
2023-05-13T03:14:50.966Z,96.40
2023-05-13T03:17:18.292Z,96.50
2023-05-13T03:19:45.427Z,96.40
2023-05-13T03:22:12.593Z,96.30
2023-05-13T03:24:39.492Z,96.50
2023-05-13T03:27:06.762Z,96.80
2023-05-13T03:29:33.882Z,96.90
2023-05-13T03:32:01.123Z,97.00
2023-05-13T03:34:28.354Z,96.90
2023-05-13T03:36:55.687Z,96.90
2023-05-13T03:39:22.953Z,97.80
2023-05-13T03:41:50.208Z,97.40
2023-05-13T03:44:17.250Z,97.40
2023-05-13T03:46:44.687Z,97.40
2023-05-13T03:49:12.300Z,97.40
2023-05-13T03:51:39.874Z,97.50
2023-05-13T03:54:07.490Z,97.60
2023-05-13T03:56:34.667Z,97.80
2023-05-13T03:59:01.987Z,97.70
2023-05-13T04:01:30.114Z,97.80
2023-05-13T04:03:57.073Z,97.90
2023-05-13T04:06:24.358Z,97.70
2023-05-13T04:08:51.669Z,98.20
2023-05-13T04:11:18.900Z,98.70
2023-05-13T04:13:47.857Z,98.50
2023-05-13T04:16:17.266Z,98.30
2023-05-13T04:18:44.272Z,98.50
2023-05-13T04:21:11.537Z,98.30
2023-05-13T04:23:38.492Z,99.50
2023-05-13T04:26:05.835Z,99.10
2023-05-13T04:28:32.829Z,99.50
2023-05-13T04:31:02.849Z,99.50
2023-05-13T04:33:32.775Z,99.30
2023-05-13T04:36:00.275Z,99.40
2023-05-13T04:38:27.550Z,99.90
2023-05-13T04:40:54.891Z,99.90
2023-05-13T04:43:36.995Z,99.90
2023-05-13T04:46:04.462Z,99.70
2023-05-13T04:48:31.591Z,99.80
2023-05-13T04:50:59.018Z,99.70
2023-05-13T04:53:27.059Z,99.40
2023-05-13T05:00:50.829Z,99.90
2023-05-13T05:04:44.842Z,99.90
2023-05-13T05:07:15.529Z,99.90
2023-05-13T05:09:42.930Z,99.90
2023-05-13T05:13:44.725Z,99.90
2023-05-13T05:16:18.370Z,99.90
2023-05-13T05:18:45.802Z,99.90
2023-05-13T05:21:13.396Z,99.90
2023-05-13T05:23:41.290Z,99.90
2023-05-13T05:26:59.803Z,99.90
2023-05-13T05:34:42.349Z,99.90
2023-05-13T05:37:10.376Z,99.90
2023-05-13T05:39:38.673Z,99.90
2023-05-13T05:42:07.555Z,99.90
2023-05-13T05:44:34.851Z,99.90
2023-05-13T05:47:02.746Z,99.90
2023-05-13T05:49:29.837Z,99.90
2023-05-13T05:51:57.628Z,99.90
2023-05-13T05:54:26.879Z,99.90
2023-05-13T05:56:54.227Z,99.90
2023-05-13T05:59:21.484Z,99.90
2023-05-13T06:01:49.403Z,99.90
2023-05-13T06:04:17.394Z,99.90
2023-05-13T06:06:45.957Z,99.90
2023-05-13T06:09:12.995Z,99.90
2023-05-13T06:11:40.321Z,99.90
2023-05-13T06:14:07.272Z,99.60
2023-05-13T06:16:34.523Z,99.40
2023-05-13T06:19:02.454Z,98.90
2023-05-13T06:21:29.635Z,98.60
2023-05-13T06:23:56.553Z,99.00
2023-05-13T06:26:24.996Z,97.50
2023-05-13T06:28:51.912Z,98.00
2023-05-13T06:31:19.144Z,97.70
2023-05-13T06:33:46.946Z,97.10
2023-05-13T06:36:14.562Z,97.10
2023-05-13T06:38:41.424Z,96.70
2023-05-13T06:41:08.748Z,96.20
2023-05-13T06:43:38.801Z,95.30
2023-05-13T06:46:21.585Z,95.90
2023-05-13T06:48:52.135Z,95.80
2023-05-13T06:51:19.478Z,93.90
2023-05-13T06:53:46.412Z,95.40
2023-05-13T06:56:13.599Z,94.80
2023-05-13T06:58:40.476Z,92.80
2023-05-13T07:01:07.756Z,93.60
2023-05-13T07:03:34.885Z,92.60
2023-05-13T07:06:02.091Z,92.80
2023-05-13T07:08:29.269Z,92.60
2023-05-13T07:10:56.644Z,91.70
2023-05-13T07:13:23.647Z,92.10
2023-05-13T07:15:50.948Z,92.90
2023-05-13T07:18:17.971Z,91.50
2023-05-13T07:20:45.432Z,91.60
2023-05-13T07:23:12.496Z,92.20
2023-05-13T07:25:39.875Z,92.20
2023-05-13T07:28:07.201Z,91.10
2023-05-13T07:30:34.745Z,90.50
2023-05-13T07:33:01.766Z,91.90
2023-05-13T07:35:29.099Z,91.40
2023-05-13T07:37:55.991Z,91.90
2023-05-13T07:40:23.359Z,89.50
2023-05-13T07:42:50.472Z,89.40
2023-05-13T07:45:17.957Z,90.20
2023-05-13T07:47:44.961Z,88.00
2023-05-13T07:50:12.519Z,90.30
2023-05-13T07:52:39.525Z,87.40
2023-05-13T07:55:07.505Z,87.40
2023-05-13T07:57:34.352Z,88.10
2023-05-13T08:00:02.595Z,86.90
2023-05-13T08:02:42.718Z,86.30
2023-05-13T08:05:11.182Z,88.50
2023-05-13T08:07:38.479Z,84.20
2023-05-13T08:10:06.661Z,82.20
2023-05-13T08:12:33.816Z,86.20
2023-05-13T08:15:03.895Z,85.20
2023-05-13T08:17:30.880Z,83.40
2023-05-13T08:19:59.941Z,83.50
2023-05-13T08:22:27.515Z,85.40
2023-05-13T08:24:54.648Z,87.10
2023-05-13T08:27:21.762Z,86.60
2023-05-13T08:29:48.994Z,83.60
2023-05-13T08:32:16.265Z,84.40
2023-05-13T08:34:43.583Z,81.80
2023-05-13T08:37:10.592Z,82.70
2023-05-13T08:39:37.743Z,81.40
2023-05-13T08:42:08.030Z,83.70
2023-05-13T08:44:39.863Z,84.60
2023-05-13T08:47:25.390Z,83.70
2023-05-13T08:49:53.263Z,84.90
2023-05-13T08:52:22.819Z,85.80
2023-05-13T08:54:50.260Z,83.60
2023-05-13T08:57:17.280Z,84.00
2023-05-13T08:59:44.701Z,83.10
2023-05-13T09:02:12.167Z,83.60
2023-05-13T09:04:42.160Z,82.90
2023-05-13T09:07:10.440Z,81.20
2023-05-13T09:09:38.007Z,83.30
2023-05-13T09:12:05.864Z,79.80
2023-05-13T09:14:33.206Z,83.50
2023-05-13T09:17:02.247Z,78.50
2023-05-13T09:19:30.083Z,79.50
2023-05-13T09:21:57.573Z,82.30
2023-05-13T09:24:24.859Z,82.40
2023-05-13T09:26:52.049Z,82.50
2023-05-13T09:29:25.928Z,80.70
2023-05-13T09:31:56.344Z,75.80
2023-05-13T09:34:31.704Z,80.50
2023-05-13T09:37:08.634Z,76.50
2023-05-13T09:39:42.971Z,79.10
2023-05-13T09:42:17.550Z,78.20
2023-05-13T09:44:46.575Z,77.30
2023-05-13T09:47:17.787Z,78.20
2023-05-13T09:49:56.866Z,76.90
2023-05-13T09:52:23.861Z,79.20
2023-05-13T09:54:51.070Z,77.80
2023-05-13T09:57:18.073Z,73.10
2023-05-13T09:59:45.224Z,75.40
2023-05-13T10:02:15.568Z,77.20
2023-05-13T10:04:43.667Z,78.70
2023-05-13T10:07:12.405Z,77.20
2023-05-13T10:09:44.298Z,76.80
2023-05-13T10:12:14.969Z,78.40
2023-05-13T10:14:44.098Z,79.20
2023-05-13T10:17:12.311Z,76.70
2023-05-13T10:19:40.694Z,78.40
2023-05-13T10:22:08.457Z,76.70
2023-05-13T10:24:38.797Z,76.80
2023-05-13T10:27:08.313Z,76.70
2023-05-13T10:29:38.823Z,76.40
2023-05-13T10:32:08.165Z,76.90
2023-05-13T10:34:38.095Z,76.20
2023-05-13T10:37:25.627Z,74.30
2023-05-13T10:40:29.114Z,74.90
2023-05-13T10:43:20.421Z,76.60
2023-05-13T10:45:56.450Z,75.30
2023-05-13T10:48:24.156Z,75.80
2023-05-13T10:50:57.306Z,75.90
2023-05-13T10:53:28.652Z,76.80
2023-05-13T10:55:59.358Z,76.70
2023-05-13T10:58:32.287Z,73.10
2023-05-13T11:01:25.203Z,75.40
2023-05-13T11:03:55.686Z,75.80
2023-05-13T11:06:29.667Z,76.60
2023-05-13T11:08:56.653Z,74.90
2023-05-13T11:11:31.254Z,75.70
2023-05-13T11:14:22.325Z,75.40
2023-05-13T11:16:59.761Z,73.90
2023-05-13T11:19:48.384Z,75.70
2023-05-13T11:22:26.111Z,75.20
2023-05-13T11:25:09.297Z,73.70
2023-05-13T11:27:43.215Z,74.40
2023-05-13T11:30:24.403Z,75.40
2023-05-13T11:32:52.248Z,74.60
2023-05-13T11:35:21.791Z,74.40
2023-05-13T11:37:49.303Z,73.80
2023-05-13T11:40:31.634Z,72.90
2023-05-13T11:43:01.234Z,73.00
2023-05-13T11:45:30.120Z,75.20
2023-05-13T11:47:58.048Z,74.70
2023-05-13T11:50:30.458Z,72.00
2023-05-13T11:53:02.335Z,75.70
2023-05-13T11:55:32.622Z,74.80
2023-05-13T11:58:00.346Z,73.10
2023-05-13T12:00:33.584Z,74.20
2023-05-13T12:03:08.917Z,75.00
2023-05-13T12:05:36.288Z,74.50
2023-05-13T12:08:03.927Z,73.10
2023-05-13T12:10:30.921Z,75.00
2023-05-13T12:12:58.590Z,75.00
2023-05-13T12:15:26.126Z,75.50
2023-05-13T12:17:54.552Z,76.60
2023-05-13T12:20:24.746Z,76.20
2023-05-13T12:22:56.934Z,78.10
2023-05-13T12:25:37.106Z,77.40
2023-05-13T12:28:25.249Z,76.50
2023-05-13T12:31:02.203Z,76.80
2023-05-13T12:33:49.918Z,76.80
2023-05-13T12:36:35.519Z,75.60
2023-05-13T12:39:11.030Z,76.90
2023-05-13T12:41:50.793Z,76.00
2023-05-13T12:44:19.400Z,76.20
2023-05-13T12:47:02.142Z,77.50
2023-05-13T12:49:30.162Z,73.90
2023-05-13T12:51:57.304Z,78.30
2023-05-13T12:54:24.620Z,77.80
2023-05-13T12:56:52.317Z,76.10
2023-05-13T12:59:19.526Z,76.00
2023-05-13T13:01:48.273Z,76.90
2023-05-13T13:04:16.966Z,78.50
2023-05-13T13:06:44.080Z,75.30
2023-05-13T13:09:11.338Z,77.10
2023-05-13T13:11:39.175Z,75.20
2023-05-13T13:14:06.486Z,76.60
2023-05-13T13:16:33.703Z,76.50
2023-05-13T13:19:01.944Z,75.20
2023-05-13T13:21:29.095Z,77.10
2023-05-13T13:23:56.454Z,77.50
2023-05-13T13:26:23.665Z,74.80
2023-05-13T13:28:50.946Z,77.60
2023-05-13T13:31:18.203Z,76.20
2023-05-13T13:33:45.674Z,75.00
2023-05-13T13:36:12.714Z,77.30
2023-05-13T13:38:40.254Z,77.60
2023-05-13T13:41:07.550Z,78.50
2023-05-13T13:43:34.738Z,78.10
2023-05-13T13:46:02.509Z,76.10
2023-05-13T13:48:29.804Z,78.40
2023-05-13T13:50:58.480Z,77.20
2023-05-13T13:53:25.767Z,78.70
2023-05-13T13:55:52.760Z,80.60
2023-05-13T13:58:20.002Z,77.60
2023-05-13T14:00:46.898Z,79.50
2023-05-13T14:03:14.283Z,78.70
2023-05-13T14:05:41.403Z,78.50
2023-05-13T14:08:08.744Z,78.40
2023-05-13T14:10:35.721Z,78.90
2023-05-13T14:13:03.441Z,79.10
2023-05-13T14:15:30.832Z,80.10
2023-05-13T14:17:58.169Z,78.30
2023-05-13T14:20:25.285Z,78.80
2023-05-13T14:22:52.564Z,78.60
2023-05-13T14:25:19.454Z,80.00
2023-05-13T14:27:46.754Z,78.40
2023-05-13T14:30:13.889Z,79.60
2023-05-13T14:32:45.703Z,79.80
2023-05-13T14:35:13.470Z,80.50
2023-05-13T14:37:41.226Z,81.10
2023-05-13T14:40:09.657Z,82.20
2023-05-13T14:42:36.981Z,79.90
2023-05-13T14:45:04.663Z,80.10
2023-05-13T14:47:32.168Z,79.70
2023-05-13T14:49:59.237Z,80.80
2023-05-13T14:52:26.523Z,81.30
2023-05-13T14:54:54.235Z,81.20
2023-05-13T14:57:21.677Z,81.10
2023-05-13T14:59:48.678Z,82.20
2023-05-13T15:02:17.295Z,82.90
2023-05-13T15:04:44.630Z,81.00
2023-05-13T15:07:11.990Z,79.50
2023-05-13T15:09:38.977Z,81.90
2023-05-13T15:12:07.164Z,80.10
2023-05-13T15:14:34.106Z,80.50
2023-05-13T15:17:01.405Z,81.70
2023-05-13T15:19:28.570Z,81.80
2023-05-13T15:21:55.752Z,81.60
2023-05-13T15:24:22.727Z,82.20
2023-05-13T15:26:50.591Z,81.50
2023-05-13T15:29:17.721Z,82.30
2023-05-13T15:31:44.877Z,83.30
2023-05-13T15:34:11.932Z,83.40
2023-05-13T15:36:39.102Z,83.10
2023-05-13T15:39:06.697Z,82.90
2023-05-13T15:41:34.120Z,83.10
2023-05-13T15:44:01.223Z,84.40
2023-05-13T15:46:28.646Z,84.30
2023-05-13T15:48:55.875Z,85.40
2023-05-13T15:51:23.006Z,85.10
2023-05-13T15:53:50.783Z,85.10
2023-05-13T15:56:18.413Z,85.60
2023-05-13T15:58:45.608Z,86.00
2023-05-13T16:01:12.924Z,86.20
2023-05-13T16:03:40.083Z,86.10
2023-05-13T16:06:07.279Z,86.80
2023-05-13T16:08:34.224Z,87.00
2023-05-13T16:11:03.730Z,86.50
2023-05-13T16:13:30.703Z,86.30
2023-05-13T16:15:57.938Z,85.90
2023-05-13T16:18:24.995Z,86.50
2023-05-13T16:20:52.623Z,85.00
2023-05-13T16:23:19.644Z,84.90
2023-05-13T16:25:47.246Z,84.10
2023-05-13T16:28:14.320Z,83.50
2023-05-13T16:30:42.543Z,83.80
2023-05-13T16:33:09.769Z,83.40
2023-05-13T16:35:37.268Z,83.00
2023-05-13T16:38:04.533Z,82.70
2023-05-13T16:40:32.024Z,82.60
2023-05-13T16:43:02.525Z,82.50
2023-05-13T16:45:31.100Z,83.30
2023-05-13T16:48:06.001Z,83.00
2023-05-13T16:50:33.852Z,82.40
2023-05-13T16:53:00.752Z,82.60
2023-05-13T16:55:28.037Z,81.60
2023-05-13T16:57:55.413Z,80.40
2023-05-13T17:00:22.810Z,79.90
2023-05-13T17:02:49.972Z,80.10
2023-05-13T17:05:18.585Z,82.40
2023-05-13T17:07:45.583Z,82.70
2023-05-13T17:10:13.069Z,80.30
2023-05-13T17:12:40.141Z,80.40
2023-05-13T17:15:07.985Z,80.20
2023-05-13T17:17:34.897Z,82.80
2023-05-13T17:20:02.252Z,80.80
2023-05-13T17:22:29.145Z,82.20
2023-05-13T17:24:56.424Z,82.70
2023-05-13T17:27:23.378Z,81.50
2023-05-13T17:29:50.628Z,79.40
2023-05-13T17:32:17.865Z,82.70
2023-05-13T17:34:45.402Z,82.30
2023-05-13T17:37:12.278Z,82.40
2023-05-13T17:39:39.533Z,82.40
2023-05-13T17:42:06.810Z,82.10
2023-05-13T17:44:34.072Z,82.10
2023-05-13T17:47:01.721Z,82.70
2023-05-13T17:49:29.008Z,81.10
2023-05-13T17:51:55.888Z,83.10
2023-05-13T17:54:23.239Z,83.20
2023-05-13T17:56:50.646Z,82.60
2023-05-13T17:59:18.130Z,82.40
2023-05-13T18:05:11.999Z,82.20
2023-05-13T18:07:39.235Z,82.20
2023-05-13T18:10:07.408Z,82.20
2023-05-13T18:12:34.805Z,81.10
2023-05-13T18:15:01.832Z,82.80
2023-05-13T18:17:29.120Z,82.40
2023-05-13T18:19:59.220Z,81.70
2023-05-13T18:22:27.066Z,84.20
2023-05-13T18:24:54.096Z,84.40
2023-05-13T18:27:21.858Z,84.40
2023-05-13T18:29:48.806Z,83.20
2023-05-13T18:32:16.017Z,84.10
2023-05-13T18:34:42.994Z,84.00
2023-05-13T18:37:10.373Z,83.70
2023-05-13T18:39:37.501Z,83.40
2023-05-13T18:42:05.427Z,83.60
2023-05-13T18:44:32.320Z,83.60
2023-05-13T18:46:59.720Z,83.60
2023-05-13T18:49:29.626Z,84.10
2023-05-13T18:51:56.816Z,84.00
2023-05-13T18:54:27.574Z,84.10
2023-05-13T18:56:56.072Z,84.30
2023-05-13T18:59:23.118Z,84.30
2023-05-13T19:01:50.596Z,84.70
2023-05-13T19:04:17.951Z,85.30
2023-05-13T19:06:45.737Z,85.40
2023-05-13T19:09:12.644Z,85.90
2023-05-13T19:11:39.924Z,86.00
2023-05-13T19:14:07.040Z,86.60
2023-05-13T19:16:34.461Z,87.60
2023-05-13T19:19:03.396Z,88.70
2023-05-13T19:21:30.835Z,88.60
2023-05-13T19:23:58.628Z,89.70
2023-05-13T19:26:26.214Z,89.10
2023-05-13T19:28:53.323Z,88.20
2023-05-13T19:31:21.895Z,88.00
2023-05-13T19:33:48.997Z,87.70
2023-05-13T19:36:16.280Z,87.70
2023-05-13T19:38:43.419Z,87.60
2023-05-13T19:41:10.714Z,87.60
2023-05-13T19:43:37.686Z,87.70
2023-05-13T19:46:04.999Z,87.70
2023-05-13T19:48:31.966Z,87.70
2023-05-13T19:50:59.166Z,87.70
2023-05-13T19:53:26.170Z,87.80
2023-05-13T19:55:53.579Z,87.70
2023-05-13T19:58:20.444Z,87.80
2023-05-13T20:00:47.775Z,87.70
2023-05-13T20:03:15.086Z,87.80
2023-05-13T20:05:42.663Z,87.80
2023-05-13T20:08:09.624Z,88.00
2023-05-13T20:10:36.954Z,88.20
2023-05-13T20:13:04.724Z,88.30
2023-05-13T20:15:32.478Z,88.40
2023-05-13T20:17:59.444Z,88.40
2023-05-13T20:20:26.703Z,88.30
2023-05-13T20:22:53.616Z,88.50
2023-05-13T20:25:21.498Z,88.40
2023-05-13T20:27:48.441Z,88.60
2023-05-13T20:30:16.505Z,88.80
2023-05-13T20:32:43.602Z,88.80
2023-05-13T20:35:11.009Z,89.00
2023-05-13T20:37:37.973Z,89.10
2023-05-13T20:40:06.757Z,88.90
2023-05-13T20:42:33.842Z,89.10
2023-05-13T20:45:01.136Z,89.10
2023-05-13T20:47:28.470Z,89.30
2023-05-13T20:49:55.656Z,89.10
2023-05-13T20:52:22.558Z,89.20
2023-05-13T20:54:49.905Z,89.40
2023-05-13T20:57:16.863Z,89.50
2023-05-13T20:59:44.162Z,89.70
2023-05-13T21:02:11.315Z,89.50
2023-05-13T21:04:38.636Z,89.60
2023-05-13T21:07:06.686Z,89.60
2023-05-13T21:09:34.210Z,89.90
2023-05-13T21:12:01.366Z,90.00
2023-05-13T21:14:28.727Z,90.00
2023-05-13T21:16:55.762Z,90.00
2023-05-13T21:19:24.854Z,90.10
2023-05-13T21:21:51.771Z,90.20
2023-05-13T21:24:19.840Z,90.20
2023-05-13T21:26:47.291Z,90.20
2023-05-13T21:29:15.162Z,90.20
2023-05-13T21:31:43.016Z,90.40
2023-05-13T21:34:10.538Z,90.40
2023-05-13T21:36:38.930Z,90.40
2023-05-13T21:39:07.687Z,90.50
2023-05-13T21:41:36.055Z,90.50
2023-05-13T21:44:05.442Z,90.60
2023-05-13T21:46:32.570Z,90.70
2023-05-13T21:49:00.496Z,90.90
2023-05-13T21:51:28.630Z,90.90
2023-05-13T21:53:55.921Z,91.00
2023-05-13T21:56:22.848Z,91.10
2023-05-13T21:58:50.536Z,91.30
2023-05-13T22:01:18.066Z,91.30
2023-05-13T22:03:45.472Z,91.40
2023-05-13T22:06:12.415Z,91.60
2023-05-13T22:08:39.923Z,91.50
2023-05-13T22:11:07.414Z,91.40
2023-05-13T22:13:34.668Z,91.50
2023-05-13T22:16:01.584Z,91.50
2023-05-13T22:18:29.027Z,91.60
2023-05-13T22:20:56.242Z,91.60
2023-05-13T22:23:23.549Z,91.60
2023-05-13T22:25:50.700Z,91.60
2023-05-13T22:28:18.032Z,91.50
2023-05-13T22:30:44.951Z,91.60
2023-05-13T22:33:12.230Z,91.80
2023-05-13T22:35:39.444Z,91.80
2023-05-13T22:38:06.759Z,92.00
2023-05-13T22:40:33.658Z,92.10
2023-05-13T22:43:00.984Z,92.20
2023-05-13T22:45:28.249Z,92.30
2023-05-13T22:47:55.990Z,92.30
2023-05-13T22:50:24.567Z,92.30
2023-05-13T22:52:52.136Z,92.30
2023-05-13T22:55:19.132Z,92.20
2023-05-13T22:57:46.319Z,92.30
2023-05-13T23:00:13.906Z,92.30
2023-05-13T23:02:41.169Z,92.40
2023-05-13T23:05:08.405Z,92.30
2023-05-13T23:07:35.835Z,92.40
2023-05-13T23:10:02.961Z,92.40
2023-05-13T23:12:30.597Z,92.50
2023-05-13T23:14:57.633Z,92.50
2023-05-13T23:17:24.988Z,92.60
2023-05-13T23:19:51.876Z,92.70
2023-05-13T23:22:19.139Z,92.70
2023-05-13T23:24:46.098Z,92.70
2023-05-13T23:27:13.442Z,92.70
2023-05-13T23:29:41.516Z,92.80
2023-05-13T23:32:09.067Z,92.70
2023-05-13T23:34:36.116Z,92.70
2023-05-13T23:37:03.468Z,92.80
2023-05-13T23:39:30.605Z,93.00
2023-05-13T23:41:57.993Z,93.10
2023-05-13T23:44:25.075Z,93.10
2023-05-13T23:46:52.569Z,93.20
2023-05-13T23:49:19.774Z,93.30
2023-05-13T23:51:47.179Z,93.40
2023-05-13T23:54:14.059Z,93.40
2023-05-13T23:56:41.360Z,93.40
2023-05-13T23:59:08.589Z,93.50
